Time;durP1;ratioP1;P1;durP2;ratioP2;P2;SDS_P1;SDS_P2;PMS_P1;PMS_P2;Temp;Humidity;BMP_temperature;BMP_pressure;BME280_temperature;BME280_humidity;BME280_pressure;Samples;Min_cycle;Max_cycle;Signal;HPM_P1;HPM_P2
2022/12/11 00:01:26;;;;;;;5.05;2.60;;;18.90;52.90;;;;;;6270915;28;20021;-68
2022/12/11 00:04:26;;;;;;;5.60;3.33;;;18.90;53.00;;;;;;6272555;28;20454;-68
2022/12/11 00:07:27;;;;;;;4.78;3.00;;;18.90;52.90;;;;;;6271932;28;20057;-69
2022/12/11 00:10:28;;;;;;;5.93;3.28;;;18.90;52.90;;;;;;6271080;28;20021;-68
2022/12/11 00:13:28;;;;;;;4.72;2.70;;;18.90;52.90;;;;;;6270866;28;20029;-69
2022/12/11 00:16:29;;;;;;;4.85;2.80;;;18.90;52.90;;;;;;6272051;28;20486;-68
2022/12/11 00:19:30;;;;;;;4.22;2.50;;;18.90;52.90;;;;;;6271899;28;20032;-68
2022/12/11 00:22:30;;;;;;;4.93;2.47;;;18.90;52.90;;;;;;6271672;28;20394;-68
2022/12/11 00:25:31;;;;;;;5.18;3.00;;;18.90;52.90;;;;;;6271901;28;20025;-68
2022/12/11 00:28:32;;;;;;;4.28;2.67;;;18.90;52.90;;;;;;6270489;28;20072;-68
2022/12/11 00:31:33;;;;;;;4.30;2.55;;;18.90;52.90;;;;;;6271523;28;20021;-68
2022/12/11 00:34:34;;;;;;;4.40;2.58;;;18.90;52.90;;;;;;6270584;28;20051;-68
2022/12/11 00:37:35;;;;;;;4.07;2.60;;;18.90;52.90;;;;;;6271369;28;20159;-68
2022/12/11 00:40:36;;;;;;;5.55;2.88;;;18.90;52.90;;;;;;6271259;28;20029;-68
2022/12/11 00:43:37;;;;;;;4.22;2.90;;;18.90;52.90;;;;;;6271271;28;20036;-68
2022/12/11 00:46:38;;;;;;;4.32;2.47;;;18.90;52.90;;;;;;6270121;28;20029;-68
2022/12/11 00:49:38;;;;;;;4.13;2.80;;;18.90;52.90;;;;;;6271073;28;20378;-68
2022/12/11 00:52:39;;;;;;;3.70;2.63;;;18.90;52.90;;;;;;6271155;28;20115;-69
2022/12/11 00:55:42;;;;;;;4.20;2.67;;;18.90;52.90;;;;;;6271171;28;20051;-69
2022/12/11 00:58:43;;;;;;;4.68;2.65;;;18.90;52.90;;;;;;6270967;28;20029;-68
2022/12/11 01:01:44;;;;;;;3.80;2.47;;;18.90;52.90;;;;;;6269617;28;20435;-69
2022/12/11 01:04:44;;;;;;;4.07;2.45;;;18.90;52.90;;;;;;6271053;28;20025;-68
2022/12/11 01:07:45;;;;;;;3.75;2.50;;;18.90;52.90;;;;;;6269992;28;20037;-69
2022/12/11 01:10:46;;;;;;;3.80;2.03;;;18.90;52.90;;;;;;6269341;28;20028;-68
2022/12/11 01:13:46;;;;;;;5.10;2.80;;;18.90;52.90;;;;;;6270928;28;20561;-69
2022/12/11 01:16:47;;;;;;;3.95;2.40;;;18.90;52.90;;;;;;6270544;28;20029;-68
2022/12/11 01:19:48;;;;;;;3.70;2.40;;;19.00;53.00;;;;;;6270525;28;20164;-68
2022/12/11 01:22:57;;;;;;;3.15;2.47;;;18.90;52.90;;;;;;6270348;28;20029;-68
2022/12/11 01:26:11;;;;;;;4.30;2.75;;;18.90;52.90;;;;;;6270952;28;20108;-68
2022/12/11 01:29:11;;;;;;;3.42;2.00;;;18.90;52.90;;;;;;6270450;28;20162;-69
2022/12/11 01:32:12;;;;;;;3.47;2.60;;;18.90;52.90;;;;;;6270612;28;20509;-69
2022/12/11 01:35:13;;;;;;;3.50;2.28;;;18.90;52.90;;;;;;6270652;28;20021;-68
2022/12/11 01:38:14;;;;;;;3.42;2.22;;;18.90;52.90;;;;;;6270238;28;20074;-68
2022/12/11 01:41:17;;;;;;;3.33;2.50;;;19.00;52.90;;;;;;6268640;28;20021;-69
2022/12/11 01:44:17;;;;;;;3.13;2.08;;;18.90;52.90;;;;;;6268528;28;20119;-69
2022/12/11 01:47:18;;;;;;;3.38;2.42;;;18.90;52.90;;;;;;6268710;28;20402;-69
2022/12/11 01:50:19;;;;;;;3.72;2.50;;;18.90;52.90;;;;;;6269801;28;20021;-68
2022/12/11 01:53:33;;;;;;;3.08;2.17;;;18.90;52.90;;;;;;6268547;28;20037;-68
2022/12/11 01:56:36;;;;;;;3.03;2.28;;;18.90;52.90;;;;;;6269644;28;20052;-69
2022/12/11 01:59:39;;;;;;;4.25;2.42;;;18.90;52.90;;;;;;6269898;28;20029;-68
2022/12/11 02:02:40;;;;;;;2.75;1.80;;;18.90;52.90;;;;;;6267985;28;20036;-69
2022/12/11 02:05:41;;;;;;;4.30;2.38;;;18.90;52.90;;;;;;6269623;28;20017;-69
2022/12/11 02:08:42;;;;;;;4.20;2.10;;;18.90;52.90;;;;;;6269386;28;20094;-69
2022/12/11 02:11:53;;;;;;;3.97;2.40;;;18.90;52.90;;;;;;6269450;28;20075;-68
2022/12/11 02:15:22;;;;;;;3.03;2.17;;;18.90;52.90;;;;;;6268062;28;20031;-69
2022/12/11 02:18:44;;;;;;;3.42;2.10;;;18.90;52.90;;;;;;6269396;28;20106;-68
2022/12/11 02:21:50;;;;;;;3.47;2.45;;;18.90;52.90;;;;;;6267666;28;20045;-68
2022/12/11 02:24:59;;;;;;;4.57;2.17;;;18.90;52.90;;;;;;6268026;28;20025;-68
2022/12/11 02:28:15;;;;;;;3.15;2.10;;;18.90;52.90;;;;;;6269257;28;20021;-68
2022/12/11 02:32:01;;;;;;;3.00;2.00;;;18.90;52.90;;;;;;6268931;28;20025;-68
2022/12/11 02:35:17;;;;;;;3.25;2.20;;;18.90;52.90;;;;;;6220735;28;20164;-69
2022/12/11 02:38:24;;;;;;;3.65;2.08;;;18.90;52.90;;;;;;6269127;28;20101;-68
2022/12/11 02:41:27;;;;;;;3.42;2.28;;;18.90;52.90;;;;;;6269077;28;20024;-68
2022/12/11 02:44:30;;;;;;;3.28;2.15;;;18.90;52.90;;;;;;6268839;28;20059;-69
2022/12/11 02:47:32;;;;;;;2.42;1.85;;;18.90;52.90;;;;;;6269124;28;20029;-68
2022/12/11 02:50:38;;;;;;;2.63;1.88;;;18.90;52.90;;;;;;6268756;28;20437;-69
2022/12/11 02:53:42;;;;;;;3.97;2.15;;;18.90;52.90;;;;;;6268383;28;20037;-68
2022/12/11 02:56:50;;;;;;;3.30;2.30;;;18.90;52.90;;;;;;6268738;28;20045;-69
2022/12/11 02:59:50;;;;;;;3.42;2.20;;;18.90;52.90;;;;;;6267764;28;20507;-68
2022/12/11 03:02:51;;;;;;;3.10;2.13;;;18.90;52.90;;;;;;6268396;28;20029;-69
2022/12/11 03:05:53;;;;;;;3.35;2.00;;;18.90;52.90;;;;;;6268651;28;20036;-69
2022/12/11 03:08:53;;;;;;;2.38;1.85;;;18.90;52.90;;;;;;6268865;28;20021;-68
2022/12/11 03:11:54;;;;;;;2.85;2.20;;;18.90;52.80;;;;;;6268607;28;20622;-68
2022/12/11 03:14:59;;;;;;;3.17;1.88;;;18.90;52.90;;;;;;6268709;28;20044;-68
2022/12/11 03:18:36;;;;;;;2.60;1.90;;;18.90;52.90;;;;;;6268429;28;20047;-69
2022/12/11 03:21:57;;;;;;;2.65;1.83;;;18.90;52.90;;;;;;6216623;28;20394;-69
2022/12/11 03:25:30;;;;;;;2.92;1.83;;;18.90;52.90;;;;;;6268540;28;20021;-69
2022/12/11 03:28:43;;;;;;;3.65;1.92;;;18.90;52.90;;;;;;6253988;28;20045;-68
2022/12/11 03:31:50;;;;;;;2.45;1.83;;;18.90;52.90;;;;;;6271293;28;20021;-68
2022/12/11 03:35:20;;;;;;;2.83;2.00;;;18.90;52.90;;;;;;6273081;28;20028;-68
2022/12/11 03:38:30;;;;;;;3.25;1.92;;;18.90;52.90;;;;;;6275268;28;20516;-68
2022/12/11 03:41:33;;;;;;;2.80;2.00;;;18.90;52.90;;;;;;6273008;28;20155;-69
2022/12/11 03:44:35;;;;;;;2.80;1.83;;;18.90;52.90;;;;;;6272620;28;20429;-69
2022/12/11 03:47:38;;;;;;;3.85;2.03;;;18.90;52.90;;;;;;6271722;28;20021;-69
2022/12/11 03:50:40;;;;;;;3.60;2.20;;;18.90;52.80;;;;;;6273146;28;20031;-68
2022/12/11 03:53:42;;;;;;;2.63;1.60;;;18.90;52.90;;;;;;6272836;28;20025;-69
2022/12/11 03:56:45;;;;;;;2.92;1.80;;;18.90;53.50;;;;;;6272503;28;20043;-68
2022/12/11 03:59:47;;;;;;;2.33;1.83;;;18.90;52.90;;;;;;6270861;28;20029;-71
2022/12/11 04:03:11;;;;;;;3.28;1.92;;;18.90;52.90;;;;;;6271120;28;20021;-72
2022/12/11 04:06:09;;;;;;;2.38;1.77;;;18.90;52.90;;;;;;6270567;28;20429;-71
2022/12/11 04:09:10;;;;;;;2.22;1.75;;;18.90;52.90;;;;;;6270897;28;20039;-71
2022/12/11 04:12:10;;;;;;;2.58;1.70;;;18.90;52.90;;;;;;6269045;28;20602;-71
2022/12/11 04:15:11;;;;;;;2.97;1.95;;;18.90;52.90;;;;;;6270811;28;20103;-71
2022/12/11 04:24:54;;;;;;;2.42;1.83;;;18.90;53.50;;;;;;6269410;28;20047;-70
2022/12/11 04:27:55;;;;;;;3.05;2.00;;;18.90;52.90;;;;;;6270516;28;20393;-71
2022/12/11 04:30:56;;;;;;;2.25;1.60;;;18.90;52.90;;;;;;6270633;28;20073;-71
2022/12/11 04:33:56;;;;;;;2.03;1.55;;;18.90;52.90;;;;;;6270428;28;20075;-71
2022/12/11 04:36:57;;;;;;;4.25;2.20;;;18.90;52.90;;;;;;6270872;28;20071;-71
2022/12/11 04:39:58;;;;;;;2.45;1.65;;;18.90;52.80;;;;;;6270600;28;20025;-71
2022/12/11 04:43:00;;;;;;;2.17;1.88;;;18.90;52.90;;;;;;6267695;28;20109;-71
2022/12/11 04:46:06;;;;;;;1.95;1.52;;;18.90;52.90;;;;;;6270254;28;20025;-71
2022/12/11 04:49:07;;;;;;;3.63;1.90;;;18.90;52.90;;;;;;6270234;28;20445;-71
2022/12/11 04:52:08;;;;;;;1.88;1.30;;;18.90;52.90;;;;;;6270244;28;20028;-71
2022/12/11 04:55:10;;;;;;;2.60;1.77;;;18.90;52.90;;;;;;6269753;28;20547;-71
2022/12/11 04:58:11;;;;;;;2.35;1.75;;;18.90;52.90;;;;;;6270178;28;20584;-71
2022/12/11 05:01:17;;;;;;;3.38;1.85;;;18.90;52.90;;;;;;6270022;28;20025;-71
2022/12/11 05:04:18;;;;;;;2.58;1.90;;;18.90;52.90;;;;;;6269831;28;20021;-71
2022/12/11 05:07:18;;;;;;;2.22;1.80;;;18.90;52.80;;;;;;6269969;28;20029;-71
2022/12/11 05:10:20;;;;;;;2.63;1.92;;;18.90;52.80;;;;;;6268680;28;20053;-71
2022/12/11 05:13:21;;;;;;;2.95;1.92;;;18.90;52.90;;;;;;6269607;28;20029;-71
2022/12/11 05:16:22;;;;;;;2.95;1.90;;;18.90;52.90;;;;;;6269220;28;20395;-71
2022/12/11 05:19:23;;;;;;;2.88;1.70;;;18.90;52.90;;;;;;6269535;28;20033;-71
2022/12/11 05:22:24;;;;;;;2.03;1.60;;;18.90;52.80;;;;;;6270012;28;20096;-71
2022/12/11 05:25:25;;;;;;;2.28;1.83;;;18.90;52.90;;;;;;6267816;28;20025;-71
2022/12/11 05:28:27;;;;;;;2.47;1.73;;;18.90;52.90;;;;;;6267799;28;20108;-70
2022/12/11 05:31:28;;;;;;;2.10;1.40;;;18.90;52.80;;;;;;6269289;28;20083;-71
2022/12/11 05:34:28;;;;;;;3.00;2.05;;;18.90;52.80;;;;;;6269193;28;20026;-71
2022/12/11 05:37:32;;;;;;;2.75;2.00;;;18.90;52.80;;;;;;6269090;28;20430;-71
2022/12/11 05:40:33;;;;;;;2.15;1.60;;;18.90;52.90;;;;;;6269164;28;20067;-71
2022/12/11 05:43:35;;;;;;;2.40;1.73;;;18.90;52.80;;;;;;6267131;28;20049;-71
2022/12/11 05:46:36;;;;;;;2.38;1.70;;;18.90;52.80;;;;;;6268754;28;20481;-71
2022/12/11 05:49:37;;;;;;;2.40;1.70;;;18.90;52.90;;;;;;6267654;28;20029;-71
2022/12/11 05:52:38;;;;;;;2.22;1.73;;;18.90;52.90;;;;;;6267816;28;20040;-71
2022/12/11 05:55:38;;;;;;;3.20;1.90;;;18.90;52.80;;;;;;6268375;28;20499;-71
2022/12/11 05:58:41;;;;;;;2.67;1.60;;;18.90;52.90;;;;;;6268849;28;20128;-71
2022/12/11 06:01:42;;;;;;;2.42;1.70;;;18.90;52.90;;;;;;6268006;28;20025;-70
2022/12/11 06:04:43;;;;;;;2.95;1.80;;;18.90;52.80;;;;;;6268559;28;20041;-70
2022/12/11 06:07:43;;;;;;;2.25;1.67;;;18.90;52.80;;;;;;6268793;28;20100;-70
2022/12/11 06:10:48;;;;;;;2.00;1.60;;;18.90;52.80;;;;;;6267800;28;20100;-71
2022/12/11 06:13:49;;;;;;;2.65;1.80;;;18.90;52.90;;;;;;6268760;28;20063;-70
2022/12/11 06:16:50;;;;;;;1.98;1.50;;;18.90;52.90;;;;;;6267575;28;20128;-71
2022/12/11 06:19:50;;;;;;;2.03;1.70;;;18.90;52.90;;;;;;6268712;28;20032;-70
2022/12/11 06:22:51;;;;;;;2.00;1.60;;;18.90;52.80;;;;;;6267350;28;20029;-71
2022/12/11 06:25:52;;;;;;;2.58;1.77;;;18.90;52.80;;;;;;6268950;28;20429;-71
2022/12/11 06:28:53;;;;;;;2.33;1.77;;;18.90;52.80;;;;;;6267223;28;20032;-70
2022/12/11 06:31:53;;;;;;;2.92;1.92;;;18.90;52.80;;;;;;6267218;28;20032;-70
2022/12/11 06:34:54;;;;;;;2.38;1.77;;;18.90;52.80;;;;;;6265852;28;20029;-70
2022/12/11 06:37:55;;;;;;;2.13;1.48;;;18.90;52.80;;;;;;6267487;28;20040;-71
2022/12/11 06:40:57;;;;;;;2.38;1.67;;;18.90;52.90;;;;;;6266898;28;20486;-71
2022/12/11 06:43:58;;;;;;;2.13;1.60;;;18.90;52.80;;;;;;6266889;28;20029;-71
2022/12/11 06:46:59;;;;;;;3.00;1.60;;;18.90;52.90;;;;;;6267358;28;20094;-71
2022/12/11 06:50:01;;;;;;;2.10;1.50;;;18.90;52.80;;;;;;6267421;28;20071;-70
2022/12/11 06:53:01;;;;;;;1.92;1.50;;;18.90;52.80;;;;;;6266624;28;20085;-71
2022/12/11 06:56:11;;;;;;;2.72;1.90;;;18.90;53.50;;;;;;6266291;28;20056;-71
2022/12/11 06:59:12;;;;;;;2.40;1.58;;;18.90;52.80;;;;;;6267611;28;20516;-71
2022/12/11 07:02:15;;;;;;;2.15;1.55;;;18.90;52.80;;;;;;6267627;28;20043;-70
2022/12/11 07:05:16;;;;;;;2.30;1.50;;;18.90;52.80;;;;;;6268141;28;20029;-71
2022/12/11 07:08:17;;;;;;;2.58;1.88;;;18.90;52.70;;;;;;6272641;28;20040;-71
2022/12/11 07:11:19;;;;;;;1.77;1.50;;;18.90;52.80;;;;;;6272409;28;20044;-71
2022/12/11 07:14:20;;;;;;;2.47;1.55;;;18.90;52.80;;;;;;6272752;28;20025;-71
2022/12/11 07:17:20;;;;;;;1.67;1.40;;;18.90;52.80;;;;;;6272486;28;20036;-71
2022/12/11 07:20:21;;;;;;;2.75;1.40;;;18.90;52.70;;;;;;6270882;28;20029;-71
2022/12/11 07:23:22;;;;;;;2.75;1.50;;;18.90;52.70;;;;;;6272143;28;20074;-71
2022/12/11 07:26:23;;;;;;;1.63;1.42;;;18.90;53.40;;;;;;6272269;28;20509;-70
2022/12/11 07:29:23;;;;;;;2.15;1.67;;;18.90;52.70;;;;;;6271986;28;20474;-71
2022/12/11 07:32:24;;;;;;;2.58;1.40;;;18.90;52.70;;;;;;6272062;28;20029;-71
2022/12/11 07:35:25;;;;;;;2.05;1.40;;;18.90;52.60;;;;;;6270858;28;20541;-71
2022/12/11 07:38:25;;;;;;;2.15;1.52;;;18.90;52.70;;;;;;6272000;28;20051;-71
2022/12/11 07:41:30;;;;;;;2.17;1.50;;;18.90;52.70;;;;;;6271767;28;20039;-71
2022/12/11 07:44:31;;;;;;;2.40;1.67;;;18.90;52.60;;;;;;6272242;28;20095;-71
2022/12/11 07:47:32;;;;;;;2.08;1.77;;;18.90;52.70;;;;;;6272851;28;20025;-71
2022/12/11 07:50:33;;;;;;;1.88;1.35;;;18.90;52.60;;;;;;6271850;28;20032;-71
2022/12/11 07:53:34;;;;;;;2.22;1.45;;;18.90;52.70;;;;;;6271825;28;20029;-71
2022/12/11 07:56:35;;;;;;;2.17;1.50;;;18.90;52.70;;;;;;6271750;28;20063;-70
2022/12/11 07:59:36;;;;;;;2.15;1.60;;;18.90;52.70;;;;;;6270300;28;20036;-70
2022/12/11 08:02:37;;;;;;;1.90;1.50;;;18.90;52.70;;;;;;6270966;28;20461;-70
2022/12/11 08:05:37;;;;;;;1.92;1.50;;;18.90;52.60;;;;;;6271581;28;20106;-71
2022/12/11 08:08:38;;;;;;;1.95;1.42;;;18.90;52.60;;;;;;6271507;28;20157;-71
2022/12/11 08:11:39;;;;;;;2.13;1.58;;;18.90;52.60;;;;;;6270811;28;20024;-71
2022/12/11 08:14:40;;;;;;;1.83;1.40;;;18.90;52.70;;;;;;6270863;28;20052;-71
2022/12/11 08:17:40;;;;;;;2.08;1.50;;;18.90;52.70;;;;;;6270897;28;20059;-71
2022/12/11 08:20:41;;;;;;;2.00;1.50;;;18.90;52.70;;;;;;6270945;28;20100;-71
2022/12/11 08:23:42;;;;;;;1.70;1.30;;;18.90;52.70;;;;;;6270864;28;20597;-71
2022/12/11 08:26:43;;;;;;;2.15;1.52;;;18.90;52.70;;;;;;6270649;28;20033;-71
2022/12/11 08:29:45;;;;;;;2.03;1.30;;;18.90;52.60;;;;;;6270766;28;20025;-71
2022/12/11 08:32:47;;;;;;;1.90;1.20;;;18.90;52.70;;;;;;6270532;28;20100;-71
2022/12/11 08:35:47;;;;;;;1.83;1.10;;;18.90;52.70;;;;;;6270804;28;20025;-71
2022/12/11 08:38:49;;;;;;;1.88;1.33;;;18.90;52.70;;;;;;6270746;28;20390;-71
2022/12/11 08:41:50;;;;;;;1.27;1.05;;;18.90;52.70;;;;;;6270234;28;20017;-71
2022/12/11 08:44:50;;;;;;;1.70;1.35;;;18.90;52.70;;;;;;6269457;28;20060;-71
2022/12/11 08:47:52;;;;;;;1.95;1.52;;;18.90;52.60;;;;;;6270668;28;20482;-71
2022/12/11 08:50:53;;;;;;;1.63;1.20;;;18.90;52.70;;;;;;6270110;28;20025;-70
2022/12/11 08:53:59;;;;;;;2.35;1.48;;;18.90;52.60;;;;;;6269828;28;20051;-70
2022/12/11 08:56:59;;;;;;;1.58;1.35;;;18.90;52.60;;;;;;6270006;28;20542;-71
2022/12/11 09:00:00;;;;;;;1.80;1.40;;;18.90;52.70;;;;;;6270095;28;20036;-70
2022/12/11 09:03:01;;;;;;;1.67;1.40;;;18.90;52.50;;;;;;6268760;28;20744;-71
2022/12/11 09:06:10;;;;;;;2.00;1.50;;;18.80;52.60;;;;;;6269923;28;20029;-71
2022/12/11 09:09:11;;;;;;;1.23;1.10;;;18.90;52.70;;;;;;6269926;28;20029;-70
2022/12/11 09:12:12;;;;;;;1.50;1.30;;;18.90;52.60;;;;;;6268452;28;20021;-70
2022/12/11 09:15:13;;;;;;;1.83;1.38;;;18.90;52.70;;;;;;6270388;28;20524;-71
2022/12/11 09:18:14;;;;;;;1.88;1.42;;;18.90;52.60;;;;;;6269704;28;20021;-71
2022/12/11 09:21:18;;;;;;;1.60;1.27;;;18.90;52.70;;;;;;6268305;28;20029;-71
2022/12/11 09:24:19;;;;;;;1.50;1.30;;;18.90;52.70;;;;;;6269224;28;20021;-71
2022/12/11 09:27:21;;;;;;;2.15;1.42;;;18.90;52.60;;;;;;6269461;28;20685;-71
2022/12/11 09:30:21;;;;;;;1.52;1.17;;;18.90;52.60;;;;;;6268641;28;20025;-71
2022/12/11 09:33:22;;;;;;;2.00;1.13;;;18.90;52.60;;;;;;6268185;28;20583;-71
2022/12/11 09:36:24;;;;;;;2.05;1.38;;;18.90;52.60;;;;;;6269142;28;20116;-71
2022/12/11 09:39:24;;;;;;;1.67;1.23;;;18.90;52.40;;;;;;6267511;28;20474;-71
2022/12/11 09:42:51;;;;;;;2.08;1.40;;;18.90;52.60;;;;;;6267921;28;20028;-72
2022/12/11 09:45:54;;;;;;;2.25;1.42;;;18.90;52.60;;;;;;6235779;28;20076;-71
2022/12/11 09:48:54;;;;;;;1.40;1.20;;;18.90;52.50;;;;;;6245006;28;20029;-71
2022/12/11 09:52:10;;;;;;;2.38;1.20;;;18.90;52.60;;;;;;6244204;28;20026;-71
2022/12/11 09:55:18;;;;;;;1.67;1.30;;;18.90;52.60;;;;;;6263803;28;20033;-70
2022/12/11 09:58:34;;;;;;;2.33;1.42;;;18.90;52.60;;;;;;6267916;28;20060;-71
2022/12/11 10:01:57;;;;;;;1.33;1.08;;;18.90;52.60;;;;;;6261349;28;20431;-70
2022/12/11 10:05:15;;;;;;;1.88;1.42;;;18.90;52.60;;;;;;6266944;28;20089;-72
2022/12/11 10:08:32;;;;;;;2.30;1.27;;;18.90;52.50;;;;;;6268219;28;20017;-71
2022/12/11 10:12:02;;;;;;;1.77;1.42;;;18.90;52.60;;;;;;6267813;28;20033;-69
2022/12/11 10:15:21;;;;;;;1.73;1.10;;;18.90;52.60;;;;;;6265127;28;20032;-67
2022/12/11 10:18:25;;;;;;;1.30;1.17;;;18.90;52.60;;;;;;6267364;28;20020;-69
2022/12/11 10:21:28;;;;;;;1.48;1.17;;;18.90;52.60;;;;;;6255490;28;20029;-69
2022/12/11 10:24:41;;;;;;;1.38;1.10;;;18.90;52.60;;;;;;6266243;28;20581;-68
2022/12/11 10:27:43;;;;;;;2.20;1.52;;;18.90;52.60;;;;;;6244857;28;20383;-69
2022/12/11 10:30:56;;;;;;;1.75;1.45;;;18.90;52.70;;;;;;6265975;28;20445;-69
2022/12/11 10:34:01;;;;;;;1.42;0.95;;;18.90;52.60;;;;;;6278688;28;20024;-68
2022/12/11 10:37:02;;;;;;;1.80;1.30;;;18.90;52.60;;;;;;6279077;28;20024;-69
2022/12/11 10:40:03;;;;;;;2.15;1.35;;;18.90;52.60;;;;;;6274935;28;20704;-69
2022/12/11 10:43:04;;;;;;;2.60;1.40;;;18.90;52.60;;;;;;6266403;28;20561;-69
2022/12/11 10:46:13;;;;;;;4.07;1.30;;;18.90;52.60;;;;;;6266354;28;20096;-69
2022/12/11 10:49:27;;;;;;;4.13;1.48;;;18.90;52.90;;;;;;6267580;28;20021;-68
2022/12/11 10:52:37;;;;;;;5.72;1.27;;;18.90;52.30;;;;;;6265646;28;20033;-68
2022/12/11 10:55:44;;;;;;;3.78;1.30;;;18.90;52.50;;;;;;6262425;28;20137;-67
2022/12/11 10:58:48;;;;;;;3.53;1.30;;;18.90;52.60;;;;;;6249286;28;20100;-68
2022/12/11 11:01:49;;;;;;;2.63;1.30;;;18.90;52.60;;;;;;6266839;28;20017;-68
2022/12/11 11:04:51;;;;;;;4.00;1.13;;;18.90;52.60;;;;;;6281853;28;20036;-67
2022/12/11 11:08:10;;;;;;;1.58;1.27;;;18.90;52.70;;;;;;6291481;28;20021;-67
2022/12/11 11:11:23;;;;;;;2.35;1.30;;;18.90;52.70;;;;;;6263861;28;20482;-72
2022/12/11 11:14:23;;;;;;;2.03;1.10;;;18.90;52.80;;;;;;6274191;28;20024;-67
2022/12/11 11:17:24;;;;;;;2.28;1.23;;;18.90;52.70;;;;;;6266865;28;20024;-68
2022/12/11 11:20:29;;;;;;;2.30;1.40;;;18.90;52.70;;;;;;6265251;28;20025;-67
2022/12/11 11:23:30;;;;;;;10.35;1.50;;;18.90;52.80;;;;;;6264282;28;20036;-68
2022/12/11 11:26:32;;;;;;;5.20;1.50;;;18.90;52.60;;;;;;6265551;28;20029;-67
2022/12/11 11:29:36;;;;;;;4.22;1.60;;;18.90;52.30;;;;;;6273938;28;20043;-68
2022/12/11 11:32:39;;;;;;;2.03;1.40;;;18.90;52.30;;;;;;6273043;28;20017;-68
2022/12/11 11:36:01;;;;;;;3.53;1.75;;;18.90;52.40;;;;;;6260555;28;20021;-72
2022/12/11 11:39:20;;;;;;;8.40;1.73;;;18.90;52.40;;;;;;6267334;28;20053;-70
2022/12/11 11:42:32;;;;;;;3.30;1.90;;;18.90;52.30;;;;;;6245172;28;20033;-70
2022/12/11 11:45:55;;;;;;;8.93;1.60;;;18.90;52.40;;;;;;6265449;28;20047;-72
2022/12/11 11:49:05;;;;;;;2.10;1.38;;;18.90;52.40;;;;;;6271153;28;20039;-70
2022/12/11 11:52:35;;;;;;;5.53;1.73;;;18.90;52.30;;;;;;6248287;28;20028;-70
2022/12/11 11:56:20;;;;;;;4.35;1.90;;;19.00;52.30;;;;;;6268821;28;20571;-70
2022/12/11 11:59:30;;;;;;;7.13;1.30;;;19.00;52.20;;;;;;6264272;28;20115;-70
2022/12/11 12:02:31;;;;;;;3.60;1.50;;;19.00;52.20;;;;;;6269513;28;20421;-70
2022/12/11 12:05:56;;;;;;;3.22;1.52;;;19.00;52.30;;;;;;6269268;28;20029;-70
2022/12/11 12:09:38;;;;;;;4.03;1.60;;;19.00;52.40;;;;;;6283619;28;20578;-70
2022/12/11 12:12:48;;;;;;;9.20;2.00;;;19.00;52.40;;;;;;6268325;28;20293;-70
2022/12/11 12:16:00;;;;;;;2.60;1.52;;;19.00;52.30;;;;;;6282280;28;20505;-70
2022/12/11 12:19:36;;;;;;;3.05;1.50;;;19.00;52.40;;;;;;6281006;28;20104;-70
2022/12/11 12:22:36;;;;;;;;;;;19.00;52.40;;;;;;6247457;28;20045;-70
2022/12/11 12:25:47;;;;;;;6.28;2.13;;;19.00;52.40;;;;;;6268866;28;19951;-70
2022/12/11 12:28:50;;;;;;;9.00;2.90;;;19.00;52.40;;;;;;6269799;28;20718;-69
2022/12/11 12:32:12;;;;;;;9.23;3.80;;;19.00;52.40;;;;;;6271696;28;20021;-69
2022/12/11 12:35:33;;;;;;;10.10;3.60;;;19.00;52.40;;;;;;6267503;28;20025;-69
2022/12/11 12:38:58;;;;;;;11.23;3.78;;;19.00;52.40;;;;;;6242947;28;20530;-68
2022/12/11 12:42:15;;;;;;;14.30;4.07;;;19.10;52.50;;;;;;6260268;28;20033;-69
2022/12/11 12:45:29;;;;;;;10.13;4.25;;;19.10;52.50;;;;;;6271831;28;20037;-69
2022/12/11 12:48:31;;;;;;;16.52;5.22;;;19.10;52.50;;;;;;6268212;28;20021;-68
2022/12/11 12:51:32;;;;;;;13.43;4.45;;;19.10;52.50;;;;;;6267710;28;20013;-69
2022/12/11 12:54:34;;;;;;;10.32;4.18;;;19.10;52.50;;;;;;6268400;28;20098;-69
2022/12/11 12:57:37;;;;;;;10.70;4.40;;;19.10;52.60;;;;;;6265996;28;20024;-69
2022/12/11 13:00:42;;;;;;;8.95;4.53;;;19.10;52.60;;;;;;6270468;28;20091;-70
2022/12/11 13:04:01;;;;;;;10.55;4.50;;;19.10;52.60;;;;;;6285341;28;20029;-69
2022/12/11 13:07:31;;;;;;;13.55;4.50;;;19.10;52.70;;;;;;6273114;28;20021;-70
2022/12/11 13:10:37;;;;;;;17.25;4.60;;;19.10;52.60;;;;;;6267901;28;20048;-70
2022/12/11 13:13:42;;;;;;;15.85;4.82;;;19.10;52.60;;;;;;6250006;28;20037;-70
2022/12/11 13:16:45;;;;;;;10.10;4.67;;;19.10;52.60;;;;;;6271728;28;20025;-69
2022/12/11 13:19:47;;;;;;;14.10;4.75;;;19.10;52.60;;;;;;6268083;28;20506;-70
2022/12/11 13:23:10;;;;;;;14.65;4.50;;;19.10;52.70;;;;;;6269796;28;20035;-69
2022/12/11 13:26:10;;;;;;;11.25;4.70;;;19.10;52.80;;;;;;6260467;28;20132;-69
2022/12/11 13:29:30;;;;;;;11.02;4.38;;;19.10;52.90;;;;;;6267943;28;20021;-70
2022/12/11 13:32:31;;;;;;;11.75;4.53;;;19.10;52.90;;;;;;6265723;28;20033;-68
2022/12/11 13:35:34;;;;;;;9.63;4.35;;;19.10;53.00;;;;;;6277706;28;20032;-69
2022/12/11 13:38:37;;;;;;;10.45;4.10;;;19.00;52.90;;;;;;6271082;28;20613;-69
2022/12/11 13:41:39;;;;;;;8.88;3.92;;;19.00;52.90;;;;;;6267182;28;20372;-70
2022/12/11 13:44:41;;;;;;;8.43;3.85;;;19.00;53.00;;;;;;6266023;28;20486;-69
2022/12/11 13:47:42;;;;;;;12.30;4.53;;;19.00;53.00;;;;;;6270011;28;20317;-70
2022/12/11 13:50:43;;;;;;;11.13;3.67;;;19.00;53.00;;;;;;6265948;28;20513;-70
2022/12/11 13:53:44;;;;;;;10.95;3.83;;;19.00;53.00;;;;;;6278466;28;20043;-70
2022/12/11 13:57:02;;;;;;;10.55;3.47;;;19.00;53.10;;;;;;6260206;28;20060;-70
2022/12/11 14:00:03;;;;;;;13.52;4.50;;;19.00;53.10;;;;;;6251221;28;20132;-69
2022/12/11 14:03:08;;;;;;;7.47;3.75;;;19.00;53.10;;;;;;6270606;28;20032;-70
2022/12/11 14:06:11;;;;;;;6.55;2.90;;;19.00;53.20;;;;;;6267071;28;20102;-70
2022/12/11 14:09:19;;;;;;;10.85;3.97;;;19.00;53.20;;;;;;6271566;28;20033;-69
2022/12/11 14:12:20;;;;;;;7.72;3.17;;;19.00;53.20;;;;;;6266115;28;20028;-69
2022/12/11 14:15:22;;;;;;;9.32;3.60;;;19.00;53.10;;;;;;6266520;28;20028;-70
2022/12/11 14:18:27;;;;;;;7.93;3.60;;;19.00;53.20;;;;;;6266636;28;20032;-69
2022/12/11 14:21:28;;;;;;;8.60;3.40;;;19.00;53.20;;;;;;6266962;28;20024;-69
2022/12/11 14:24:30;;;;;;;8.45;3.50;;;19.00;53.20;;;;;;6271963;28;20036;-69
2022/12/11 14:27:30;;;;;;;8.93;3.40;;;19.00;53.20;;;;;;6269179;28;20029;-69
2022/12/11 14:30:34;;;;;;;8.68;3.22;;;19.00;53.20;;;;;;6284831;28;20049;-69
2022/12/11 14:33:42;;;;;;;6.40;3.25;;;19.00;53.30;;;;;;6262920;28;20024;-68
2022/12/11 14:36:46;;;;;;;7.95;3.30;;;19.00;53.30;;;;;;6259996;28;20079;-69
2022/12/11 14:39:56;;;;;;;9.90;2.97;;;19.00;53.30;;;;;;6266518;28;20146;-69
2022/12/11 14:43:06;;;;;;;4.95;2.50;;;19.00;53.30;;;;;;6255206;28;20028;-69
2022/12/11 14:46:14;;;;;;;8.80;3.67;;;19.00;53.30;;;;;;6265464;28;20440;-70
2022/12/11 14:49:18;;;;;;;6.03;2.75;;;19.00;53.30;;;;;;6265650;28;20140;-69
2022/12/11 14:52:26;;;;;;;6.40;3.10;;;19.00;53.40;;;;;;6258954;28;20550;-70
2022/12/11 14:55:36;;;;;;;6.63;2.80;;;19.00;53.40;;;;;;6265221;28;20127;-69
2022/12/11 14:58:47;;;;;;;7.25;3.22;;;19.00;53.40;;;;;;6265155;28;20032;-70
2022/12/11 15:02:00;;;;;;;8.43;3.42;;;19.00;53.40;;;;;;6266274;28;20031;-69
2022/12/11 15:05:17;;;;;;;4.70;2.42;;;19.00;53.50;;;;;;6266578;28;20021;-70
2022/12/11 15:08:24;;;;;;;5.88;3.10;;;19.00;53.40;;;;;;6270264;28;20051;-70
2022/12/11 15:11:30;;;;;;;6.50;2.60;;;19.00;53.50;;;;;;6276181;28;20033;-70
2022/12/11 15:14:32;;;;;;;5.75;2.83;;;19.00;53.40;;;;;;6265789;28;20115;-68
2022/12/11 15:17:36;;;;;;;5.32;2.78;;;19.00;53.40;;;;;;6265384;28;20108;-69
2022/12/11 15:20:36;;;;;;;5.38;2.67;;;19.00;53.40;;;;;;6267029;28;20029;-68
2022/12/11 15:23:55;;;;;;;4.28;2.63;;;19.00;53.40;;;;;;6264860;28;20021;-70
2022/12/11 15:26:57;;;;;;;5.20;2.60;;;19.00;53.40;;;;;;6267951;28;20048;-69
2022/12/11 15:29:58;;;;;;;9.10;2.78;;;19.00;53.40;;;;;;6270013;28;20055;-69
2022/12/11 15:33:10;;;;;;;4.88;2.22;;;19.00;53.40;;;;;;6270453;28;20025;-70
2022/12/11 15:36:20;;;;;;;4.18;2.20;;;19.00;53.40;;;;;;6269407;28;20025;-70
2022/12/11 15:39:20;;;;;;;5.10;2.88;;;19.00;53.40;;;;;;6279087;28;20086;-69
2022/12/11 15:42:36;;;;;;;7.00;2.88;;;19.00;53.40;;;;;;6275864;28;20117;-70
2022/12/11 15:45:37;;;;;;;3.90;2.28;;;19.00;53.40;;;;;;6297307;28;20028;-70
2022/12/11 15:48:37;;;;;;;3.97;2.38;;;19.00;53.40;;;;;;6295405;28;20033;-70
2022/12/11 15:51:38;;;;;;;5.70;2.67;;;19.00;53.40;;;;;;6295473;28;20020;-70
2022/12/11 15:54:39;;;;;;;4.07;2.13;;;19.00;53.40;;;;;;6293131;28;20084;-69
2022/12/11 15:57:46;;;;;;;5.43;2.40;;;19.00;53.40;;;;;;6295515;28;20024;-69
2022/12/11 16:00:47;;;;;;;5.38;2.45;;;19.00;53.40;;;;;;6295046;28;20025;-70
2022/12/11 16:03:49;;;;;;;4.88;2.22;;;19.00;53.40;;;;;;6289457;28;20021;-70
2022/12/11 16:06:50;;;;;;;5.50;2.40;;;19.00;53.40;;;;;;6270073;28;20118;-69
2022/12/11 16:09:51;;;;;;;4.30;2.33;;;19.00;53.40;;;;;;6268732;28;20025;-69